Time;durP1;ratioP1;P1;durP2;ratioP2;P2;SDS_P1;SDS_P2;PMS_P1;PMS_P2;Temp;Humidity;BMP_temperature;BMP_pressure;BME280_temperature;BME280_humidity;BME280_pressure;Samples;Min_cycle;Max_cycle;Signal;HPM_P1;HPM_P2
2024/04/09 00:02:07;;;;;;;;;;;23.10;53.70;;;;;;5451063;26;20416;-76
2024/04/09 00:04:33;;;;;;;;;;;23.10;54.50;;;;;;5451454;26;20283;-76
2024/04/09 00:06:58;;;;;;;;;;;23.50;54.50;;;;;;5450770;26;20278;-76
2024/04/09 00:09:29;;;;;;;;;;;23.00;55.10;;;;;;5451815;26;19929;-76
2024/04/09 00:11:55;;;;;;;;;;;23.00;54.50;;;;;;5454204;26;19936;-76
2024/04/09 00:14:21;;;;;;;;;;;23.00;54.20;;;;;;5454380;26;19997;-76
2024/04/09 00:16:47;;;;;;;;;;;23.00;54.50;;;;;;5454197;26;19936;-76
2024/04/09 00:19:14;;;;;;;;;;;23.00;54.20;;;;;;5454462;26;19940;-75
2024/04/09 00:21:39;;;;;;;;;;;22.90;54.10;;;;;;5454335;26;19929;-76
2024/04/09 00:24:06;;;;;;;;;;;23.00;54.20;;;;;;5454393;26;19928;-76
2024/04/09 00:26:31;;;;;;;;;;;22.90;54.30;;;;;;5454107;26;19934;-76
2024/04/09 00:28:57;;;;;;;;;;;22.90;55.10;;;;;;5454302;26;19928;-76
2024/04/09 00:31:24;;;;;;;;;;;22.90;54.40;;;;;;5454052;26;19961;-76
2024/04/09 00:33:51;;;;;;;;;;;22.90;54.10;;;;;;5454343;26;19936;-76
2024/04/09 00:36:17;;;;;;;;;;;22.90;54.40;;;;;;5454165;26;19936;-76
2024/04/09 00:38:46;;;;;;;;;;;22.90;54.70;;;;;;5454161;26;20298;-76
2024/04/09 00:41:16;;;;;;;;;;;22.50;54.10;;;;;;5453748;26;19929;-76
2024/04/09 00:43:41;;;;;;;;;;;22.90;52.80;;;;;;5454070;26;19937;-76
2024/04/09 00:46:07;;;;;;;;;;;22.80;54.40;;;;;;5454206;26;20275;-75
2024/04/09 00:48:34;;;;;;;;;;;22.80;54.30;;;;;;5453687;26;20278;-76
2024/04/09 00:50:59;;;;;;;;;;;22.80;54.40;;;;;;5453970;26;19929;-76
2024/04/09 00:53:25;;;;;;;;;;;22.80;54.30;;;;;;5453957;26;19939;-75
2024/04/09 00:55:52;;;;;;;;;;;22.80;54.40;;;;;;5453931;26;20224;-76
2024/04/09 00:58:20;;;;;;;;;;;22.80;54.30;;;;;;5453637;26;19932;-76
2024/04/09 01:00:46;;;;;;;;;;;22.80;54.40;;;;;;5453963;26;19935;-75
2024/04/09 01:03:12;;;;;;;;;;;22.80;53.70;;;;;;5453804;26;19929;-76
2024/04/09 01:05:38;;;;;;;;;;;22.70;54.30;;;;;;5453952;26;19936;-74
2024/04/09 01:08:04;;;;;;;;;;;22.70;54.30;;;;;;5454206;26;19929;-74
2024/04/09 01:10:30;;;;;;;;;;;22.70;54.40;;;;;;5454066;26;19928;-74
2024/04/09 01:12:56;;;;;;;;;;;22.70;54.60;;;;;;5454068;26;19937;-74
2024/04/09 01:15:21;;;;;;;;;;;22.70;54.50;;;;;;5453796;26;20618;-73
2024/04/09 01:17:47;;;;;;;;;;;22.60;54.60;;;;;;5453731;26;19933;-74
2024/04/09 01:20:13;;;;;;;;;;;22.60;54.40;;;;;;5454157;26;20079;-74
2024/04/09 01:22:39;;;;;;;;;;;22.60;54.70;;;;;;5452986;26;19934;-73
2024/04/09 01:25:04;;;;;;;;;;;22.60;54.70;;;;;;5453960;26;19928;-73
2024/04/09 01:27:33;;;;;;;;;;;22.60;54.40;;;;;;5454026;26;20264;-73
2024/04/09 01:30:00;;;;;;;;;;;22.60;54.50;;;;;;5453728;26;19929;-73
2024/04/09 01:32:26;;;;;;;;;;;22.60;54.80;;;;;;5453616;26;19929;-74
2024/04/09 01:34:52;;;;;;;;;;;22.60;54.70;;;;;;5453882;26;19956;-73
2024/04/09 01:37:18;;;;;;;;;;;22.60;54.90;;;;;;5453802;26;19978;-74
2024/04/09 01:39:45;;;;;;;;;;;22.60;54.80;;;;;;5453748;26;19933;-73
2024/04/09 01:42:11;;;;;;;;;;;22.60;55.00;;;;;;5453763;26;19928;-74
2024/04/09 01:44:37;;;;;;;;;;;22.60;54.90;;;;;;5453801;26;19935;-74
2024/04/09 01:47:05;;;;;;;;;;;22.70;54.90;;;;;;5453737;26;19955;-73
2024/04/09 01:49:31;;;;;;;;;;;22.60;54.60;;;;;;5453866;26;19940;-76
2024/04/09 01:51:56;;;;;;;;;;;22.20;54.50;;;;;;5453515;26;20020;-76
2024/04/09 01:54:22;;;;;;;;;;;22.60;55.10;;;;;;5453456;26;20390;-76
2024/04/09 01:56:48;;;;;;;;;;;22.60;54.90;;;;;;5421751;26;19939;-75
2024/04/09 01:59:14;;;;;;;;;;;22.60;55.00;;;;;;5453479;26;19928;-76
2024/04/09 02:01:42;;;;;;;;;;;22.70;54.50;;;;;;5453565;26;19974;-76
2024/04/09 02:04:08;;;;;;;;;;;22.60;54.80;;;;;;5452984;26;19978;-76
2024/04/09 02:06:33;;;;;;;;;;;22.60;55.00;;;;;;5453173;26;19968;-76
2024/04/09 02:08:59;;;;;;;;;;;22.60;55.00;;;;;;5453099;26;20259;-76
2024/04/09 02:11:28;;;;;;;;;;;22.60;55.10;;;;;;5453155;26;19993;-76
2024/04/09 02:13:54;;;;;;;;;;;22.60;54.90;;;;;;5452838;26;20590;-76
2024/04/09 02:16:21;;;;;;;;;;;22.50;54.80;;;;;;5453056;26;19940;-76
2024/04/09 02:18:47;;;;;;;;;;;22.60;55.00;;;;;;5453349;26;19935;-76
2024/04/09 02:21:12;;;;;;;;;;;22.50;55.60;;;;;;5452804;26;19928;-75
2024/04/09 02:23:39;;;;;;;;;;;22.50;55.20;;;;;;5452663;26;20320;-76
2024/04/09 02:26:05;;;;;;;;;;;22.50;55.00;;;;;;5452929;26;19937;-76
2024/04/09 02:28:30;;;;;;;;;;;22.50;55.10;;;;;;5453057;26;20258;-76
2024/04/09 02:30:56;;;;;;;;;;;22.50;55.10;;;;;;5452658;26;20023;-75
2024/04/09 02:33:22;;;;;;;;;;;22.50;55.00;;;;;;5452621;26;20065;-75
2024/04/09 02:36:01;;;;;;;;;;;22.50;55.00;;;;;;5452954;26;19929;-76
2024/04/09 02:38:29;;;;;;;;;;;22.50;53.30;;;;;;5420909;26;19936;-76
2024/04/09 02:40:55;;;;;;;;;;;22.50;55.20;;;;;;5452823;26;19954;-75
2024/04/09 02:43:21;;;;;;;;;;;23.20;55.50;;;;;;5452320;26;19932;-76
2024/04/09 02:45:48;;;;;;;;;;;22.50;55.10;;;;;;5453135;26;19940;-76
2024/04/09 02:48:15;;;;;;;;;;;22.50;55.00;;;;;;5452308;26;19982;-76
2024/04/09 02:50:41;;;;;;;;;;;22.40;55.10;;;;;;5452771;26;20054;-76
2024/04/09 02:53:06;;;;;;;;;;;22.40;54.90;;;;;;5420733;26;19933;-76
2024/04/09 02:55:32;;;;;;;;;;;22.40;55.30;;;;;;5452183;26;19929;-76
2024/04/09 02:57:58;;;;;;;;;;;22.40;55.10;;;;;;5452259;26;19936;-76
2024/04/09 03:00:23;;;;;;;;;;;22.50;55.00;;;;;;5452373;26;20227;-76
2024/04/09 03:02:50;;;;;;;;;;;22.40;54.40;;;;;;5451658;26;19929;-76
2024/04/09 03:05:16;;;;;;;;;;;22.40;55.10;;;;;;5451762;26;19935;-75
2024/04/09 03:07:42;;;;;;;;;;;22.40;55.10;;;;;;5451753;26;19929;-76
2024/04/09 03:10:10;;;;;;;;;;;22.50;55.00;;;;;;5451866;26;20347;-75
2024/04/09 03:12:35;;;;;;;;;;;22.30;55.00;;;;;;5451553;26;19928;-76
2024/04/09 03:15:01;;;;;;;;;;;22.30;55.10;;;;;;5452446;26;19935;-76
2024/04/09 03:17:26;;;;;;;;;;;22.40;55.30;;;;;;5451781;26;19933;-75
2024/04/09 03:19:52;;;;;;;;;;;22.50;55.30;;;;;;5451557;26;19954;-76
2024/04/09 03:22:17;;;;;;;;;;;22.30;55.10;;;;;;5451488;26;19928;-76
2024/04/09 03:24:46;;;;;;;;;;;22.30;55.10;;;;;;5451591;26;19956;-76
2024/04/09 03:27:12;;;;;;;;;;;22.30;54.80;;;;;;5419741;26;19973;-77
2024/04/09 03:29:37;;;;;;;;;;;22.30;55.30;;;;;;5451463;26;19936;-76
2024/04/09 03:32:03;;;;;;;;;;;22.20;55.10;;;;;;5451346;26;19929;-76
2024/04/09 03:34:28;;;;;;;;;;;22.30;54.80;;;;;;5451406;26;19929;-76
2024/04/09 03:36:54;;;;;;;;;;;22.20;55.10;;;;;;5451500;26;19938;-76
2024/04/09 03:39:19;;;;;;;;;;;22.20;55.10;;;;;;5451405;26;19929;-76
2024/04/09 03:41:44;;;;;;;;;;;22.20;55.20;;;;;;5451014;26;19929;-76
2024/04/09 03:44:10;;;;;;;;;;;22.30;54.80;;;;;;5451150;26;19963;-76
2024/04/09 03:46:36;;;;;;;;;;;22.20;55.30;;;;;;5451189;26;19961;-74
2024/04/09 03:49:03;;;;;;;;;;;22.20;55.10;;;;;;5451532;26;20410;-76
2024/04/09 03:51:29;;;;;;;;;;;22.20;55.10;;;;;;5451435;26;19935;-77
2024/04/09 03:53:55;;;;;;;;;;;22.20;55.50;;;;;;5451254;26;20366;-75
2024/04/09 03:56:22;;;;;;;;;;;23.20;55.50;;;;;;5449855;26;20317;-77
2024/04/09 03:58:49;;;;;;;;;;;22.10;55.00;;;;;;5450864;26;19928;-77
2024/04/09 04:01:16;;;;;;;;;;;22.10;55.10;;;;;;5451065;26;19933;-77
2024/04/09 04:03:44;;;;;;;;;;;22.10;54.80;;;;;;5450727;26;19964;-74
2024/04/09 04:06:09;;;;;;;;;;;22.10;55.30;;;;;;5451271;26;20296;-77
2024/04/09 04:08:36;;;;;;;;;;;22.10;55.30;;;;;;5451715;26;19940;-77
2024/04/09 04:11:02;;;;;;;;;;;22.10;54.80;;;;;;5451129;26;19928;-74
2024/04/09 04:13:29;;;;;;;;;;;22.00;54.80;;;;;;5451058;26;19929;-77
2024/04/09 04:16:07;;;;;;;;;;;22.10;55.00;;;;;;5451156;26;20247;-74
2024/04/09 04:18:35;;;;;;;;;;;22.20;53.30;;;;;;5451119;26;20018;-75
2024/04/09 04:21:01;;;;;;;;;;;22.10;55.00;;;;;;5451061;26;19928;-74
2024/04/09 04:23:27;;;;;;;;;;;22.00;54.90;;;;;;5450777;26;19928;-74
2024/04/09 04:26:06;;;;;;;;;;;22.00;55.00;;;;;;5450639;26;19936;-74
2024/04/09 04:28:32;;;;;;;;;;;21.90;53.20;;;;;;5450750;26;19929;-72
2024/04/09 04:30:58;;;;;;;;;;;21.90;55.10;;;;;;5450792;26;19994;-75
2024/04/09 04:33:24;;;;;;;;;;;22.00;55.10;;;;;;5450494;26;19928;-75
2024/04/09 04:35:50;;;;;;;;;;;21.90;54.80;;;;;;5450518;26;19935;-74
2024/04/09 04:38:16;;;;;;;;;;;21.90;55.10;;;;;;5450722;26;19928;-75
2024/04/09 04:40:42;;;;;;;;;;;21.90;55.20;;;;;;5450375;26;19946;-74
2024/04/09 04:43:08;;;;;;;;;;;21.90;55.20;;;;;;5450333;26;20367;-74
2024/04/09 04:45:33;;;;;;;;;;;21.90;55.10;;;;;;5450449;26;19935;-75
2024/04/09 04:47:59;;;;;;;;;;;21.80;55.10;;;;;;5450298;26;19957;-75
2024/04/09 04:50:24;;;;;;;;;;;21.80;55.00;;;;;;5450470;26;19939;-75
2024/04/09 04:52:50;;;;;;;;;;;21.80;54.60;;;;;;5450384;26;19934;-75
2024/04/09 04:55:16;;;;;;;;;;;22.30;55.40;;;;;;5449811;26;19929;-76
2024/04/09 04:57:42;;;;;;;;;;;21.80;55.20;;;;;;5453374;26;20370;-73
2024/04/09 05:00:11;;;;;;;;;;;21.50;55.00;;;;;;5453586;26;20256;-71
2024/04/09 05:02:37;;;;;;;;;;;21.90;54.70;;;;;;5453048;26;20382;-73
2024/04/09 05:05:04;;;;;;;;;;;21.80;55.10;;;;;;5453287;26;19935;-73
2024/04/09 05:07:30;;;;;;;;;;;21.80;55.00;;;;;;5453022;26;19956;-73
2024/04/09 05:09:55;;;;;;;;;;;21.80;55.20;;;;;;5453009;26;19929;-73
2024/04/09 05:12:21;;;;;;;;;;;21.50;54.90;;;;;;5452965;26;19976;-72
2024/04/09 05:14:47;;;;;;;;;;;21.70;55.00;;;;;;5453041;26;20029;-72
2024/04/09 05:17:13;;;;;;;;;;;21.70;55.10;;;;;;5452937;26;19935;-72
2024/04/09 05:19:39;;;;;;;;;;;21.70;55.30;;;;;;5452653;26;19929;-71
2024/04/09 05:22:04;;;;;;;;;;;21.70;55.00;;;;;;5452469;26;20378;-71
2024/04/09 05:24:34;;;;;;;;;;;21.60;54.70;;;;;;5452281;26;20323;-71
2024/04/09 05:27:00;;;;;;;;;;;21.60;53.70;;;;;;5452962;26;19940;-74
2024/04/09 05:29:25;;;;;;;;;;;21.60;54.90;;;;;;5452531;26;20439;-74
2024/04/09 05:31:51;;;;;;;;;;;21.60;54.90;;;;;;5452637;26;19952;-74
2024/04/09 05:34:17;;;;;;;;;;;21.60;55.10;;;;;;5452405;26;20367;-74
2024/04/09 05:36:43;;;;;;;;;;;21.60;55.20;;;;;;5452528;26;20381;-73
2024/04/09 05:39:09;;;;;;;;;;;21.60;54.80;;;;;;5452486;26;19929;-74
2024/04/09 05:41:35;;;;;;;;;;;21.60;55.10;;;;;;5452981;26;20468;-74
2024/04/09 05:44:01;;;;;;;;;;;21.60;55.10;;;;;;5452657;26;19936;-73
2024/04/09 05:46:27;;;;;;;;;;;21.60;55.00;;;;;;5452200;26;19961;-74
2024/04/09 05:48:53;;;;;;;;;;;21.60;55.30;;;;;;5452143;26;19929;-74
2024/04/09 05:51:19;;;;;;;;;;;21.50;55.40;;;;;;5452486;26;19935;-74
2024/04/09 05:53:45;;;;;;;;;;;21.50;55.00;;;;;;5452445;26;19940;-75
2024/04/09 05:56:11;;;;;;;;;;;21.60;55.20;;;;;;5452589;26;19997;-75
2024/04/09 05:58:38;;;;;;;;;;;21.50;55.10;;;;;;5452331;26;19935;-75
2024/04/09 06:01:07;;;;;;;;;;;21.60;55.30;;;;;;5452172;26;19940;-76
2024/04/09 06:03:33;;;;;;;;;;;21.50;54.90;;;;;;5452146;26;19932;-75
2024/04/09 06:05:59;;;;;;;;;;;21.50;55.20;;;;;;5452170;26;19935;-75
2024/04/09 06:08:26;;;;;;;;;;;21.60;55.30;;;;;;5454586;26;20363;-76
2024/04/09 06:10:52;;;;;;;;;;;21.50;55.00;;;;;;5452168;26;19929;-76
2024/04/09 06:13:18;;;;;;;;;;;21.50;55.00;;;;;;5452120;26;19964;-76
2024/04/09 06:15:44;;;;;;;;;;;21.50;55.20;;;;;;5452166;26;20312;-76
2024/04/09 06:18:10;;;;;;;;;;;21.50;55.10;;;;;;5451571;26;20023;-75
2024/04/09 06:20:36;;;;;;;;;;;21.50;55.10;;;;;;5452031;26;19940;-76
2024/04/09 06:23:02;;;;;;;;;;;21.50;54.90;;;;;;5451904;26;19936;-75
2024/04/09 06:25:28;;;;;;;;;;;21.40;54.80;;;;;;5452403;26;19928;-76
2024/04/09 06:27:54;;;;;;;;;;;21.40;55.10;;;;;;5452431;26;20316;-75
2024/04/09 06:30:20;;;;;;;;;;;21.40;54.80;;;;;;5451830;26;19928;-76
2024/04/09 06:32:46;;;;;;;;;;;21.40;54.70;;;;;;5452146;26;19956;-75
2024/04/09 06:35:12;;;;;;;;;;;21.40;54.60;;;;;;5452042;26;20254;-72
2024/04/09 06:37:38;;;;;;;;;;;21.40;54.50;;;;;;5451889;26;19953;-73
2024/04/09 06:40:07;;;;;;;;;;;21.40;54.40;;;;;;5451899;26;19941;-72
2024/04/09 06:42:33;;;;;;;;;;;21.40;54.20;;;;;;5451560;26;20359;-72
2024/04/09 06:45:01;;;;;;;;;;;21.40;54.50;;;;;;5451315;26;19998;-72
2024/04/09 06:47:27;;;;;;;;;;;21.30;54.10;;;;;;5451839;26;19928;-72
2024/04/09 06:49:55;;;;;;;;;;;21.30;54.30;;;;;;5451374;26;20001;-72
2024/04/09 06:52:20;;;;;;;;;;;21.30;54.00;;;;;;5451358;26;19937;-72
2024/04/09 06:54:46;;;;;;;;;;;21.30;54.30;;;;;;5451494;26;19957;-74
2024/04/09 06:57:12;;;;;;;;;;;21.20;54.10;;;;;;5451275;26;20274;-75
2024/04/09 06:59:38;;;;;;;;;;;21.40;54.40;;;;;;5451161;26;19961;-74
2024/04/09 07:02:04;;;;;;;;;;;21.30;53.70;;;;;;5451326;26;19928;-72
2024/04/09 07:04:30;;;;;;;;;;;21.20;54.10;;;;;;5451598;26;19940;-72
2024/04/09 07:06:56;;;;;;;;;;;21.20;53.90;;;;;;5451138;26;19929;-72
2024/04/09 07:09:22;;;;;;;;;;;21.20;53.70;;;;;;5451579;26;20289;-72
2024/04/09 07:11:48;;;;;;;;;;;21.20;53.70;;;;;;5451161;26;19928;-72
2024/04/09 07:14:14;;;;;;;;;;;21.20;53.40;;;;;;5450921;26;19933;-72
2024/04/09 07:16:41;;;;;;;;;;;21.10;53.90;;;;;;5450905;26;19928;-72
2024/04/09 07:19:07;;;;;;;;;;;21.10;53.50;;;;;;5449300;26;19996;-74
2024/04/09 07:21:33;;;;;;;;;;;21.10;53.40;;;;;;5450969;26;19936;-72
2024/04/09 07:23:59;;;;;;;;;;;21.10;53.10;;;;;;5450993;26;19928;-72
2024/04/09 07:26:25;;;;;;;;;;;21.10;52.70;;;;;;5419377;26;19974;-72
2024/04/09 07:28:51;;;;;;;;;;;21.10;53.10;;;;;;5450741;26;19961;-73
2024/04/09 07:31:17;;;;;;;;;;;21.10;53.10;;;;;;5450646;26;19937;-73
2024/04/09 07:33:46;;;;;;;;;;;21.00;53.10;;;;;;5450714;26;19928;-75
2024/04/09 07:36:12;;;;;;;;;;;21.00;53.00;;;;;;5450579;26;20439;-72
2024/04/09 07:38:38;;;;;;;;;;;21.10;53.10;;;;;;5450564;26;19934;-76
2024/04/09 07:41:04;;;;;;;;;;;21.00;52.90;;;;;;5450495;26;19935;-77
2024/04/09 07:43:31;;;;;;;;;;;20.90;52.90;;;;;;5450926;26;19955;-77
2024/04/09 07:45:57;;;;;;;;;;;20.90;52.70;;;;;;5450473;26;19937;-76
2024/04/09 07:48:24;;;;;;;;;;;20.90;52.80;;;;;;5450108;26;19929;-76
2024/04/09 07:50:51;;;;;;;;;;;20.90;52.60;;;;;;5450125;26;20339;-77
2024/04/09 07:53:17;;;;;;;;;;;20.90;52.30;;;;;;5450622;26;19935;-77
2024/04/09 07:55:44;;;;;;;;;;;20.90;52.40;;;;;;5450694;26;20280;-76
2024/04/09 07:58:11;;;;;;;;;;;20.80;52.40;;;;;;5450285;26;19932;-77
2024/04/09 08:00:37;;;;;;;;;;;20.40;51.90;;;;;;5450276;26;19937;-77
2024/04/09 08:03:03;;;;;;;;;;;20.80;51.70;;;;;;5449971;26;19935;-77
2024/04/09 08:05:29;;;;;;;;;;;20.80;51.90;;;;;;5450381;26;20259;-78
2024/04/09 08:07:55;;;;;;;;;;;20.90;52.40;;;;;;5450106;26;20255;-77
2024/04/09 08:10:21;;;;;;;;;;;20.80;52.40;;;;;;5450268;26;19941;-78
2024/04/09 08:12:51;;;;;;;;;;;20.70;52.30;;;;;;5450430;26;19948;-77
2024/04/09 08:15:18;;;;;;;;;;;20.70;51.90;;;;;;5450579;26;19936;-76
2024/04/09 08:17:44;;;;;;;;;;;20.70;52.00;;;;;;5450149;26;20554;-79
2024/04/09 08:20:10;;;;;;;;;;;20.70;51.70;;;;;;5450200;26;19982;-78
2024/04/09 08:22:37;;;;;;;;;;;20.60;51.80;;;;;;5451057;26;19928;-77
2024/04/09 08:25:03;;;;;;;;;;;20.60;51.70;;;;;;5450260;26;20415;-78
2024/04/09 08:27:32;;;;;;;;;;;20.60;51.40;;;;;;5451263;26;19997;-80
2024/04/09 08:29:58;;;;;;;;;;;20.60;51.70;;;;;;5450030;26;19978;-77
2024/04/09 08:32:25;;;;;;;;;;;20.60;51.30;;;;;;5453504;26;19928;-77
2024/04/09 08:34:52;;;;;;;;;;;20.60;51.50;;;;;;5453765;26;20335;-77
2024/04/09 08:37:18;;;;;;;;;;;20.60;51.50;;;;;;5453517;26;19941;-77
2024/04/09 08:39:51;;;;;;;;;;;20.60;51.60;;;;;;5453613;26;20026;-78
2024/04/09 08:42:17;;;;;;;;;;;20.60;51.40;;;;;;5454074;26;19928;-75
2024/04/09 08:44:45;;;;;;;;;;;20.50;51.50;;;;;;5453328;26;19929;-76
2024/04/09 08:47:10;;;;;;;;;;;20.60;51.40;;;;;;5453144;26;20228;-76
2024/04/09 08:49:37;;;;;;;;;;;20.80;51.40;;;;;;5453286;26;19957;-76
2024/04/09 08:52:03;;;;;;;;;;;20.50;51.00;;;;;;5453181;26;20359;-76
2024/04/09 08:54:29;;;;;;;;;;;20.50;50.80;;;;;;5453272;26;19936;-75
2024/04/09 08:56:55;;;;;;;;;;;20.50;51.10;;;;;;5453164;26;20258;-75
2024/04/09 08:59:21;;;;;;;;;;;20.60;51.10;;;;;;5453273;26;19935;-75
2024/04/09 09:01:47;;;;;;;;;;;20.60;50.70;;;;;;5452834;26;19929;-75
2024/04/09 09:04:13;;;;;;;;;;;20.60;51.30;;;;;;5452968;26;20301;-75
2024/04/09 09:06:45;;;;;;;;;;;20.50;51.40;;;;;;5452906;26;19928;-75
2024/04/09 09:09:21;;;;;;;;;;;20.60;49.10;;;;;;5452945;26;19929;-75
2024/04/09 09:11:47;;;;;;;;;;;20.60;49.20;;;;;;5453166;26;19928;-75
2024/04/09 09:14:14;;;;;;;;;;;20.60;51.30;;;;;;5452858;26;19935;-75
2024/04/09 09:16:40;;;;;;;;;;;20.60;51.20;;;;;;5452609;26;19932;-75
2024/04/09 09:19:06;;;;;;;;;;;20.50;51.30;;;;;;5452744;26;19936;-75
2024/04/09 09:21:32;;;;;;;;;;;20.60;50.70;;;;;;5452539;26;19972;-75
2024/04/09 09:23:58;;;;;;;;;;;20.50;51.10;;;;;;5453054;26;20525;-75
2024/04/09 09:26:24;;;;;;;;;;;20.50;51.00;;;;;;5452664;26;19928;-75
2024/04/09 09:29:00;;;;;;;;;;;20.50;50.90;;;;;;5452388;26;19997;-75
2024/04/09 09:31:26;;;;;;;;;;;20.60;51.00;;;;;;5452578;26;19997;-75
2024/04/09 09:33:54;;;;;;;;;;;20.50;51.00;;;;;;5452220;26;20292;-75
2024/04/09 09:36:20;;;;;;;;;;;20.50;50.90;;;;;;5452253;26;19940;-75
2024/04/09 09:38:47;;;;;;;;;;;20.10;50.70;;;;;;5452522;26;19997;-75
2024/04/09 09:41:14;;;;;;;;;;;20.50;51.00;;;;;;5452632;26;19935;-75
2024/04/09 09:43:41;;;;;;;;;;;20.50;50.90;;;;;;5451062;26;19964;-75
2024/04/09 09:46:10;;;;;;;;;;;20.50;50.60;;;;;;5452092;26;19952;-75
2024/04/09 09:48:36;;;;;;;;;;;20.40;50.40;;;;;;5452118;26;19936;-75
2024/04/09 09:51:02;;;;;;;;;;;20.40;50.70;;;;;;5452600;26;19928;-76
2024/04/09 09:53:28;;;;;;;;;;;20.60;50.20;;;;;;5452259;26;19935;-77
2024/04/09 09:55:55;;;;;;;;;;;20.40;50.60;;;;;;5452331;26;19961;-74
2024/04/09 09:58:22;;;;;;;;;;;20.40;50.20;;;;;;5452226;26;20088;-79
2024/04/09 10:00:49;;;;;;;;;;;20.40;50.50;;;;;;5452052;26;19935;-72
2024/04/09 10:03:15;;;;;;;;;;;20.50;50.10;;;;;;5451783;26;19929;-72
2024/04/09 10:05:40;;;;;;;;;;;20.50;50.30;;;;;;5452232;26;19935;-72
2024/04/09 10:08:18;;;;;;;;;;;20.30;50.20;;;;;;5452397;26;19978;-73
2024/04/09 10:10:46;;;;;;;;;;;20.30;48.30;;;;;;5451537;26;19940;-75
2024/04/09 10:13:12;;;;;;;;;;;20.30;50.40;;;;;;5451850;26;20339;-73
2024/04/09 10:15:43;;;;;;;;;;;20.30;50.50;;;;;;5451788;26;19998;-73
2024/04/09 10:18:08;;;;;;;;;;;20.30;50.20;;;;;;5452042;26;20259;-72
2024/04/09 10:20:37;;;;;;;;;;;20.30;50.30;;;;;;5451666;26;20051;-72
2024/04/09 10:23:04;;;;;;;;;;;20.30;48.40;;;;;;5451355;26;20270;-73
2024/04/09 10:25:36;;;;;;;;;;;20.30;49.80;;;;;;5451776;26;19933;-74
2024/04/09 10:28:04;;;;;;;;;;;20.30;48.00;;;;;;5451562;26;19928;-73
2024/04/09 10:30:31;;;;;;;;;;;20.30;47.90;;;;;;5451649;26;19939;-73
2024/04/09 10:32:57;;;;;;;;;;;20.30;49.60;;;;;;5451704;26;19936;-73
2024/04/09 10:35:23;;;;;;;;;;;20.20;49.80;;;;;;5451711;26;19934;-73
2024/04/09 10:37:53;;;;;;;;;;;20.30;49.40;;;;;;5452243;26;20006;-73
2024/04/09 10:40:19;;;;;;;;;;;20.20;47.60;;;;;;5451417;26;19929;-73
2024/04/09 10:42:44;;;;;;;;;;;20.20;50.00;;;;;;5451502;26;19956;-73
2024/04/09 10:45:10;;;;;;;;;;;20.20;50.10;;;;;;5451208;26;20406;-73
2024/04/09 10:47:37;;;;;;;;;;;20.20;50.20;;;;;;5451645;26;19928;-73
2024/04/09 10:50:03;;;;;;;;;;;20.10;49.90;;;;;;5419465;26;20354;-73
2024/04/09 10:52:29;;;;;;;;;;;20.10;50.00;;;;;;5451359;26;20007;-73
2024/04/09 10:54:54;;;;;;;;;;;20.10;49.90;;;;;;5451014;26;19965;-73
2024/04/09 10:57:20;;;;;;;;;;;20.10;50.10;;;;;;5451137;26;19962;-73
2024/04/09 10:59:46;;;;;;;;;;;20.10;50.00;;;;;;5451327;26;19978;-73
2024/04/09 11:02:13;;;;;;;;;;;20.30;49.60;;;;;;5451133;26;20231;-73
2024/04/09 11:04:39;;;;;;;;;;;20.10;49.90;;;;;;5452139;26;20020;-73
2024/04/09 11:07:07;;;;;;;;;;;20.10;49.90;;;;;;5451465;26;20438;-73
2024/04/09 11:09:34;;;;;;;;;;;20.10;50.10;;;;;;5451255;26;19976;-73
2024/04/09 11:11:59;;;;;;;;;;;20.10;49.80;;;;;;5451526;26;19936;-73
2024/04/09 11:14:25;;;;;;;;;;;20.00;50.00;;;;;;5451420;26;20235;-73
2024/04/09 11:16:51;;;;;;;;;;;20.10;50.10;;;;;;5451229;26;19940;-73
2024/04/09 11:19:21;;;;;;;;;;;20.10;50.00;;;;;;5451450;26;19929;-73
2024/04/09 11:21:46;;;;;;;;;;;20.10;47.70;;;;;;5450986;26;20367;-73
2024/04/09 11:24:12;;;;;;;;;;;20.10;50.10;;;;;;5451151;26;20015;-73
2024/04/09 11:26:40;;;;;;;;;;;20.00;50.10;;;;;;5451008;26;20281;-73
2024/04/09 11:29:16;;;;;;;;;;;20.00;50.20;;;;;;5419522;26;19928;-73
2024/04/09 11:31:43;;;;;;;;;;;20.00;50.40;;;;;;5451306;26;19928;-73
2024/04/09 11:34:09;;;;;;;;;;;20.00;50.30;;;;;;5451212;26;20248;-73
2024/04/09 11:36:36;;;;;;;;;;;20.00;50.40;;;;;;5451220;26;19997;-73
2024/04/09 11:39:02;;;;;;;;;;;20.00;50.30;;;;;;5450967;26;19945;-73
2024/04/09 11:41:28;;;;;;;;;;;20.00;50.30;;;;;;5450757;26;20001;-73
2024/04/09 11:43:59;;;;;;;;;;;19.90;50.40;;;;;;5450736;26;19940;-73
2024/04/09 11:46:25;;;;;;;;;;;19.90;47.90;;;;;;5450832;26;20277;-73
2024/04/09 11:48:51;;;;;;;;;;;19.90;50.50;;;;;;5450816;26;19928;-74
2024/04/09 11:51:16;;;;;;;;;;;20.00;50.30;;;;;;5450548;26;19928;-73
2024/04/09 11:53:45;;;;;;;;;;;19.90;50.20;;;;;;5450847;26;19928;-73
2024/04/09 11:56:10;;;;;;;;;;;19.90;47.90;;;;;;5450781;26;19928;-73
2024/04/09 11:58:36;;;;;;;;;;;20.40;50.60;;;;;;5418732;26;19936;-73
2024/04/09 12:01:02;;;;;;;;;;;19.90;50.30;;;;;;5450667;26;19936;-73
2024/04/09 12:03:28;;;;;;;;;;;19.90;49.70;;;;;;5450913;26;19929;-73
2024/04/09 12:05:53;;;;;;;;;;;19.90;50.40;;;;;;5449435;26;19939;-73
2024/04/09 12:08:19;;;;;;;;;;;19.90;50.30;;;;;;5449976;26;19935;-73
2024/04/09 12:10:45;;;;;;;;;;;19.90;50.40;;;;;;5450524;26;19964;-73
2024/04/09 12:13:11;;;;;;;;;;;19.90;50.10;;;;;;5450397;26;20042;-73
2024/04/09 12:15:36;;;;;;;;;;;19.80;50.10;;;;;;5450451;26;20315;-73
2024/04/09 12:18:02;;;;;;;;;;;19.90;50.10;;;;;;5450337;26;19928;-74
2024/04/09 12:20:28;;;;;;;;;;;20.40;50.40;;;;;;5418035;26;19997;-74
2024/04/09 12:22:53;;;;;;;;;;;19.90;50.30;;;;;;5449697;26;19935;-73
2024/04/09 12:25:19;;;;;;;;;;;19.80;50.40;;;;;;5449881;26;20336;-73
2024/04/09 12:27:44;;;;;;;;;;;19.80;50.20;;;;;;5449986;26;19933;-74
2024/04/09 12:30:10;;;;;;;;;;;19.80;50.40;;;;;;5449793;26;19929;-73
2024/04/09 12:32:37;;;;;;;;;;;19.80;49.70;;;;;;5449873;26;20256;-74
2024/04/09 12:35:02;;;;;;;;;;;19.80;50.30;;;;;;5449826;26;19928;-73
2024/04/09 12:37:28;;;;;;;;;;;19.80;49.90;;;;;;5449503;26;19996;-73
2024/04/09 12:39:53;;;;;;;;;;;19.80;49.90;;;;;;5449612;26;20404;-73
2024/04/09 12:42:19;;;;;;;;;;;19.90;50.20;;;;;;5449692;26;20027;-74
2024/04/09 12:44:44;;;;;;;;;;;19.80;49.70;;;;;;5449480;26;19953;-74
2024/04/09 12:47:10;;;;;;;;;;;19.80;49.90;;;;;;5449762;26;19936;-73
2024/04/09 12:49:36;;;;;;;;;;;20.20;49.80;;;;;;5449641;26;19928;-74
2024/04/09 12:52:02;;;;;;;;;;;19.90;49.80;;;;;;5449847;26;19936;-73
2024/04/09 12:54:27;;;;;;;;;;;19.80;49.80;;;;;;5449550;26;19936;-74
2024/04/09 12:56:53;;;;;;;;;;;19.80;50.00;;;;;;5449459;26;19935;-73
2024/04/09 12:59:19;;;;;;;;;;;19.70;49.80;;;;;;5449779;26;19928;-73
2024/04/09 13:01:44;;;;;;;;;;;19.90;49.10;;;;;;5449216;26;19935;-73
2024/04/09 13:04:10;;;;;;;;;;;19.70;49.40;;;;;;5449007;26;19936;-74
2024/04/09 13:06:36;;;;;;;;;;;19.70;49.90;;;;;;5449960;26;19928;-73
2024/04/09 13:09:01;;;;;;;;;;;19.80;49.50;;;;;;5417423;26;20332;-73
2024/04/09 13:11:27;;;;;;;;;;;20.00;49.80;;;;;;5449385;26;19928;-74
2024/04/09 13:13:52;;;;;;;;;;;19.80;49.50;;;;;;5448987;26;19928;-74
2024/04/09 13:16:18;;;;;;;;;;;19.70;49.60;;;;;;5417126;26;19936;-73
2024/04/09 13:18:44;;;;;;;;;;;19.80;49.40;;;;;;5420216;26;19928;-74
2024/04/09 13:21:10;;;;;;;;;;;19.70;49.90;;;;;;5452697;26;19928;-74
2024/04/09 13:23:35;;;;;;;;;;;19.70;49.70;;;;;;5452712;26;19939;-73
2024/04/09 13:26:01;;;;;;;;;;;19.80;49.80;;;;;;5452897;26;20369;-73
2024/04/09 13:28:26;;;;;;;;;;;20.10;49.90;;;;;;5452692;26;19928;-73
2024/04/09 13:30:52;;;;;;;;;;;19.80;49.90;;;;;;5452833;26;19935;-74
2024/04/09 13:33:17;;;;;;;;;;;19.70;49.60;;;;;;5452510;26;19941;-74
2024/04/09 13:35:43;;;;;;;;;;;19.60;48.90;;;;;;5453368;26;20021;-75
2024/04/09 13:38:08;;;;;;;;;;;19.80;49.50;;;;;;5452533;26;19936;-76
2024/04/09 13:40:34;;;;;;;;;;;19.80;49.90;;;;;;5452803;26;19928;-76
2024/04/09 13:42:59;;;;;;;;;;;19.80;49.60;;;;;;5452706;26;20271;-76
2024/04/09 13:45:25;;;;;;;;;;;19.70;50.00;;;;;;5452531;26;19964;-76
2024/04/09 13:47:50;;;;;;;;;;;19.70;49.50;;;;;;5452544;26;19943;-76
2024/04/09 13:50:19;;;;;;;;;;;19.70;50.20;;;;;;5452385;26;19997;-76
2024/04/09 13:52:45;;;;;;;;;;;19.70;48.60;;;;;;5451963;26;19935;-76
2024/04/09 13:55:11;;;;;;;;;;;19.80;50.30;;;;;;5452162;26;19952;-76
2024/04/09 13:57:36;;;;;;;;;;;19.80;50.00;;;;;;5452238;26;19936;-76
2024/04/09 14:00:07;;;;;;;;;;;19.80;50.30;;;;;;5452283;26;19928;-76
2024/04/09 14:02:32;;;;;;;;;;;19.90;49.90;;;;;;5451821;26;19932;-76
2024/04/09 14:04:58;;;;;;;;;;;19.80;50.10;;;;;;5452653;26;19981;-76
2024/04/09 14:07:23;;;;;;;;;;;19.80;50.30;;;;;;5452650;26;19928;-76
2024/04/09 14:09:49;;;;;;;;;;;19.60;50.20;;;;;;5452367;26;19997;-76
2024/04/09 14:12:14;;;;;;;;;;;19.70;50.10;;;;;;5452121;26;19997;-76